createdAt,value
2019-05-01T00:02:24.543Z,17.88
2019-05-01T00:04:51.777Z,17.92
2019-05-01T00:07:18.660Z,17.99
2019-05-01T00:09:45.625Z,17.89
2019-05-01T00:12:12.557Z,17.89
2019-05-01T00:14:39.432Z,17.85
2019-05-01T00:17:06.294Z,17.73
2019-05-01T00:19:33.157Z,17.67
2019-05-01T00:22:00.041Z,17.61
2019-05-01T00:24:27.364Z,17.63
2019-05-01T00:26:54.620Z,17.63
2019-05-01T00:29:21.536Z,17.71
2019-05-01T00:31:48.486Z,17.79
2019-05-01T00:34:15.447Z,17.66
2019-05-01T00:36:42.409Z,17.58
2019-05-01T00:39:09.640Z,17.54
2019-05-01T00:41:38.421Z,17.62
2019-05-01T00:44:05.573Z,17.66
2019-05-01T00:46:32.552Z,17.68
2019-05-01T00:48:59.427Z,17.57
2019-05-01T00:51:26.723Z,17.46
2019-05-01T00:53:53.976Z,17.50
2019-05-01T00:56:20.855Z,17.52
2019-05-01T00:58:47.714Z,17.54
2019-05-01T01:01:14.600Z,17.53
2019-05-01T01:03:41.492Z,17.57
2019-05-01T01:06:08.508Z,17.55
2019-05-01T01:08:35.746Z,17.54
2019-05-01T01:11:02.654Z,17.46
2019-05-01T01:13:29.601Z,17.42
2019-05-01T01:15:56.570Z,17.42
2019-05-01T01:18:23.515Z,17.50
2019-05-01T01:20:50.489Z,17.50
2019-05-01T01:23:17.629Z,17.56
2019-05-01T01:25:44.788Z,17.50
2019-05-01T01:28:11.668Z,17.46
2019-05-01T01:30:38.524Z,17.41
2019-05-01T01:33:05.391Z,17.49
2019-05-01T01:35:32.559Z,17.56
2019-05-01T01:37:59.428Z,17.66
2019-05-01T01:40:26.668Z,17.72
2019-05-01T01:42:54.972Z,17.62
2019-05-01T01:45:21.909Z,17.56
2019-05-01T01:47:48.885Z,17.63
2019-05-01T01:50:16.084Z,17.71
2019-05-01T01:52:43.340Z,17.79
2019-05-01T01:55:10.218Z,17.80
2019-05-01T01:57:37.189Z,17.70
2019-05-01T02:00:04.049Z,17.68
2019-05-01T02:02:31.325Z,17.71
2019-05-01T02:04:58.203Z,17.75
2019-05-01T02:07:25.176Z,17.69
2019-05-01T02:09:52.362Z,17.71
2019-05-01T02:12:19.617Z,17.75
2019-05-01T02:14:46.473Z,17.79
2019-05-01T02:17:13.349Z,17.83
2019-05-01T02:19:40.226Z,17.85
2019-05-01T02:22:07.290Z,17.71
2019-05-01T02:24:34.146Z,17.64
2019-05-01T02:27:01.401Z,17.68
2019-05-01T02:29:28.652Z,17.72
2019-05-01T02:31:55.618Z,17.78
2019-05-01T02:34:22.560Z,17.76
2019-05-01T02:36:49.813Z,17.70
2019-05-01T02:39:16.741Z,17.70
2019-05-01T02:41:43.605Z,17.74
2019-05-01T02:44:10.562Z,17.82
2019-05-01T02:46:38.610Z,17.86
2019-05-01T02:49:05.548Z,17.90
2019-05-01T02:51:32.508Z,17.90
2019-05-01T02:53:59.425Z,17.86
2019-05-01T02:56:29.341Z,17.77
2019-05-01T02:58:56.219Z,17.83
2019-05-01T03:01:23.452Z,17.88
2019-05-01T03:03:50.398Z,17.97
2019-05-01T03:06:17.390Z,18.08
2019-05-01T03:08:44.283Z,18.13
2019-05-01T03:11:11.166Z,18.13
2019-05-01T03:13:38.485Z,18.13
2019-05-01T03:16:05.397Z,18.15
2019-05-01T03:18:32.288Z,18.18
2019-05-01T03:20:59.148Z,18.14
2019-05-01T03:23:26.029Z,18.05
2019-05-01T03:25:52.978Z,17.98
2019-05-01T03:28:20.255Z,17.91
2019-05-01T03:30:47.122Z,17.92
2019-05-01T03:33:14.361Z,17.96
2019-05-01T03:35:41.610Z,17.99
2019-05-01T03:38:08.524Z,18.04
2019-05-01T03:40:35.475Z,18.10
2019-05-01T03:43:02.747Z,18.07
2019-05-01T03:45:29.609Z,17.99
2019-05-01T03:47:56.778Z,17.98
2019-05-01T03:50:23.660Z,17.99
2019-05-01T03:52:50.952Z,18.03
2019-05-01T03:55:18.202Z,18.11
2019-05-01T03:57:45.059Z,18.18
2019-05-01T04:00:11.916Z,18.18
2019-05-01T04:02:38.796Z,18.23
2019-05-01T04:05:05.979Z,18.31
2019-05-01T04:07:36.262Z,18.45
2019-05-01T04:10:02.843Z,18.55
2019-05-01T04:12:29.702Z,18.63
2019-05-01T04:14:56.569Z,18.77
2019-05-01T04:17:23.552Z,18.85
2019-05-01T04:19:50.431Z,18.92
2019-05-01T04:22:17.362Z,18.97
2019-05-01T04:24:44.234Z,18.97
2019-05-01T04:27:11.477Z,19.01
2019-05-01T04:29:38.424Z,19.04
2019-05-01T04:32:05.365Z,19.07
2019-05-01T04:34:32.608Z,19.13
2019-05-01T04:36:59.877Z,19.18
2019-05-01T04:39:26.761Z,19.20
2019-05-01T04:41:53.624Z,19.23
2019-05-01T04:44:20.516Z,19.29
2019-05-01T04:46:47.397Z,19.36
2019-05-01T04:49:17.884Z,19.40
2019-05-01T04:51:43.874Z,19.43
2019-05-01T04:54:10.805Z,19.42
2019-05-01T04:56:37.684Z,19.42
2019-05-01T04:59:04.832Z,19.45
2019-05-01T05:01:32.065Z,19.46
2019-05-01T05:03:59.337Z,19.48
2019-05-01T05:06:26.293Z,19.50
2019-05-01T05:08:53.536Z,19.47
2019-05-01T05:11:21.577Z,19.46
2019-05-01T05:13:48.451Z,19.51
2019-05-01T05:16:15.321Z,19.53
2019-05-01T05:18:42.197Z,19.55
2019-05-01T05:21:09.093Z,19.57
2019-05-01T05:23:36.338Z,19.57
2019-05-01T05:26:03.284Z,19.60
2019-05-01T05:28:31.352Z,19.57
2019-05-01T05:30:58.399Z,19.56
2019-05-01T05:33:25.252Z,19.57
2019-05-01T05:35:52.175Z,19.59
2019-05-01T05:38:19.440Z,19.63
2019-05-01T05:40:46.317Z,19.67
2019-05-01T05:43:13.178Z,19.68
2019-05-01T05:45:40.078Z,19.69
2019-05-01T05:48:07.036Z,19.72
2019-05-01T05:50:34.269Z,19.75
2019-05-01T05:53:01.467Z,19.77
2019-05-01T05:55:28.680Z,19.81
2019-05-01T05:57:55.914Z,19.82
2019-05-01T06:00:23.076Z,19.85
2019-05-01T06:02:50.237Z,19.86
2019-05-01T06:05:17.185Z,19.87
2019-05-01T06:07:44.057Z,19.87
2019-05-01T06:10:11.263Z,19.85
2019-05-01T06:12:41.749Z,19.82
2019-05-01T06:15:07.598Z,19.82
2019-05-01T06:17:34.676Z,19.85
2019-05-01T06:20:01.606Z,19.90
2019-05-01T06:22:28.484Z,19.96
2019-05-01T06:24:55.736Z,20.07
2019-05-01T06:27:23.073Z,20.12
2019-05-01T06:29:50.084Z,20.11
2019-05-01T06:32:17.365Z,20.12
2019-05-01T06:34:44.243Z,20.15
2019-05-01T06:37:11.453Z,20.11
2019-05-01T06:39:38.331Z,20.10
2019-05-01T06:42:09.721Z,20.11
2019-05-01T06:44:38.753Z,20.06
2019-05-01T06:47:03.449Z,20.06
2019-05-01T06:49:31.617Z,20.08
2019-05-01T06:51:58.858Z,20.10
2019-05-01T06:54:26.021Z,20.14
2019-05-01T06:56:53.280Z,20.17
2019-05-01T06:59:20.413Z,20.18
2019-05-01T07:01:47.572Z,20.17
2019-05-01T07:04:14.723Z,20.18
2019-05-01T07:06:41.605Z,20.16
2019-05-01T07:09:11.928Z,20.11
2019-05-01T07:11:37.798Z,20.11
2019-05-01T07:14:05.060Z,20.12
2019-05-01T07:16:33.247Z,20.17
2019-05-01T07:19:05.919Z,20.22
2019-05-01T07:21:32.564Z,20.27
2019-05-01T07:23:57.651Z,20.32
2019-05-01T07:26:24.585Z,20.38
2019-05-01T07:28:51.533Z,20.45
2019-05-01T07:31:18.689Z,20.50
2019-05-01T07:33:47.144Z,20.58
2019-05-01T07:36:16.341Z,20.63
2019-05-01T07:38:42.835Z,20.71
2019-05-01T07:41:12.358Z,20.85
2019-05-01T07:43:40.095Z,21.11
2019-05-01T07:46:07.252Z,21.48
2019-05-01T07:48:36.116Z,21.60
2019-05-01T07:51:06.910Z,21.78
2019-05-01T07:53:31.633Z,21.87
2019-05-01T07:55:58.798Z,22.05
2019-05-01T07:58:25.760Z,22.26
2019-05-01T08:00:52.719Z,22.08
2019-05-01T08:03:19.699Z,21.92
2019-05-01T08:05:47.606Z,21.81
2019-05-01T08:08:14.872Z,21.78
2019-05-01T08:10:45.078Z,21.77
2019-05-01T08:13:11.969Z,21.70
2019-05-01T08:15:39.187Z,21.62
2019-05-01T08:18:06.464Z,21.60
2019-05-01T08:20:33.685Z,21.53
2019-05-01T08:23:00.954Z,21.52
2019-05-01T08:25:28.629Z,21.43
2019-05-01T08:27:58.128Z,21.34
2019-05-01T08:30:25.145Z,21.30
2019-05-01T08:32:52.019Z,21.20
2019-05-01T08:35:18.887Z,21.20
2019-05-01T08:37:45.970Z,21.32
2019-05-01T08:40:15.953Z,21.43
2019-05-01T08:42:42.544Z,21.47
2019-05-01T08:45:10.089Z,21.47
2019-05-01T08:47:36.954Z,21.50
2019-05-01T08:50:04.100Z,21.50
2019-05-01T08:52:31.288Z,21.50
2019-05-01T08:54:58.263Z,21.59
2019-05-01T08:57:29.083Z,21.74
2019-05-01T08:59:55.721Z,21.89
2019-05-01T09:02:22.630Z,22.01
2019-05-01T09:05:01.564Z,22.12
2019-05-01T09:07:19.189Z,22.20
2019-05-01T09:09:47.431Z,22.26
2019-05-01T09:12:15.604Z,22.29
2019-05-01T09:14:42.481Z,22.30
2019-05-01T09:17:10.651Z,22.17
2019-05-01T09:19:38.384Z,22.07
2019-05-01T09:22:05.669Z,22.04
2019-05-01T09:24:35.919Z,22.07
2019-05-01T09:27:02.842Z,22.07
2019-05-01T09:29:30.756Z,22.12
2019-05-01T09:31:57.684Z,22.14
2019-05-01T09:34:24.975Z,22.13
2019-05-01T09:36:52.141Z,22.15
2019-05-01T09:39:19.140Z,22.16
2019-05-01T09:41:47.616Z,22.17
2019-05-01T09:44:15.439Z,22.13
2019-05-01T09:46:42.705Z,22.12
2019-05-01T09:49:14.217Z,22.12
2019-05-01T09:51:47.599Z,22.12
2019-05-01T09:54:12.595Z,22.08
2019-05-01T09:56:40.707Z,22.08
2019-05-01T09:59:12.637Z,22.07
2019-05-01T10:01:39.709Z,22.14
2019-05-01T10:04:07.129Z,22.25
2019-05-01T10:06:36.286Z,22.23
2019-05-01T10:09:03.514Z,22.32
2019-05-01T10:11:35.995Z,22.39
2019-05-01T10:14:04.090Z,22.38
2019-05-01T10:16:30.292Z,22.39
2019-05-01T10:18:57.676Z,22.43
2019-05-01T10:21:29.832Z,22.43
2019-05-01T10:23:56.764Z,22.47
2019-05-01T10:26:25.349Z,22.49
2019-05-01T10:28:52.449Z,22.55
2019-05-01T10:31:19.797Z,22.56
2019-05-01T10:33:47.233Z,22.56
2019-05-01T10:36:18.818Z,22.64
2019-05-01T10:38:44.887Z,22.69
2019-05-01T10:41:11.257Z,22.68
2019-05-01T10:43:38.222Z,22.70
2019-05-01T10:46:05.168Z,22.76
2019-05-01T10:48:32.496Z,22.79
2019-05-01T10:50:59.451Z,22.82
2019-05-01T10:53:26.403Z,22.86
2019-05-01T10:55:53.940Z,22.90
2019-05-01T10:58:20.845Z,22.97
2019-05-01T11:00:48.125Z,23.01
2019-05-01T11:03:15.071Z,23.03
2019-05-01T11:05:55.047Z,23.05
2019-05-01T11:08:11.126Z,23.08
2019-05-01T11:10:38.286Z,23.12
2019-05-01T11:13:07.904Z,23.10
2019-05-01T11:15:34.749Z,23.04
2019-05-01T11:18:01.765Z,23.01
2019-05-01T11:20:29.724Z,23.02
2019-05-01T11:22:57.726Z,23.02
2019-05-01T11:25:24.921Z,23.03
2019-05-01T11:27:52.266Z,23.01
2019-05-01T11:30:19.266Z,23.01
2019-05-01T11:32:46.194Z,22.99
2019-05-01T11:35:16.548Z,22.99
2019-05-01T11:37:43.668Z,23.02
2019-05-01T11:40:13.149Z,23.00
2019-05-01T11:42:40.517Z,23.02
2019-05-01T11:45:08.462Z,23.00
2019-05-01T11:47:35.335Z,23.03
2019-05-01T11:50:02.232Z,23.10
2019-05-01T11:52:29.468Z,23.14
2019-05-01T11:54:56.431Z,23.17
2019-05-01T11:57:23.879Z,23.15
2019-05-01T11:59:51.990Z,23.14
2019-05-01T12:02:21.843Z,23.17
2019-05-01T12:04:48.741Z,23.11
2019-05-01T12:07:16.098Z,23.10
2019-05-01T12:09:43.648Z,23.11
2019-05-01T12:12:10.661Z,23.09
2019-05-01T12:14:40.876Z,23.08
2019-05-01T12:17:08.019Z,23.13
2019-05-01T12:19:34.995Z,23.17
2019-05-01T12:22:03.356Z,23.17
2019-05-01T12:24:30.702Z,23.20
2019-05-01T12:26:57.565Z,23.23
2019-05-01T12:29:24.731Z,23.22
2019-05-01T12:31:52.066Z,23.21
2019-05-01T12:34:19.297Z,23.26
2019-05-01T12:36:46.167Z,23.30
2019-05-01T12:39:13.509Z,23.33
2019-05-01T12:41:40.495Z,23.37
2019-05-01T12:44:07.578Z,23.44
2019-05-01T12:46:35.105Z,23.50
2019-05-01T12:49:02.135Z,23.53
2019-05-01T12:51:29.521Z,23.54
2019-05-01T12:53:56.753Z,23.56
2019-05-01T12:56:24.077Z,23.59
2019-05-01T12:58:50.967Z,23.59
2019-05-01T13:01:17.830Z,23.57
2019-05-01T13:03:44.725Z,23.53
2019-05-01T13:06:14.323Z,23.46
2019-05-01T13:08:40.536Z,23.45
2019-05-01T13:11:07.494Z,23.40
2019-05-01T13:13:34.358Z,23.46
2019-05-01T13:16:01.681Z,23.54
2019-05-01T13:18:28.942Z,23.59
2019-05-01T13:20:56.201Z,23.64
2019-05-01T13:23:23.453Z,23.71
2019-05-01T13:25:50.705Z,23.75
2019-05-01T13:28:17.643Z,23.70
2019-05-01T13:30:44.532Z,23.74
2019-05-01T13:33:11.745Z,23.75
2019-05-01T13:35:38.998Z,23.68
2019-05-01T13:38:05.990Z,23.63
2019-05-01T13:40:32.878Z,23.59
2019-05-01T13:42:59.803Z,23.58
2019-05-01T13:45:26.970Z,23.63
2019-05-01T13:47:54.596Z,23.68
2019-05-01T13:50:22.993Z,23.67
2019-05-01T13:52:51.320Z,23.70
2019-05-01T13:55:18.258Z,23.71
2019-05-01T13:57:45.207Z,23.73
2019-05-01T14:00:12.166Z,23.74
2019-05-01T14:02:41.351Z,23.74
2019-05-01T14:05:08.236Z,23.75
2019-05-01T14:07:35.565Z,23.68
2019-05-01T14:10:02.434Z,23.69
2019-05-01T14:12:30.749Z,23.67
2019-05-01T14:14:57.894Z,23.64
2019-05-01T14:17:24.775Z,23.66
2019-05-01T14:19:52.015Z,23.70
2019-05-01T14:22:19.364Z,23.75
2019-05-01T14:24:46.311Z,23.81
2019-05-01T14:27:13.461Z,23.78
2019-05-01T14:29:40.340Z,23.80
2019-05-01T14:32:07.233Z,23.81
2019-05-01T14:34:34.501Z,23.88
2019-05-01T14:37:01.750Z,23.89
2019-05-01T14:39:28.901Z,23.92
2019-05-01T14:41:55.812Z,23.98
2019-05-01T14:44:22.686Z,24.01
2019-05-01T14:46:49.934Z,24.05
2019-05-01T14:49:16.841Z,24.02
2019-05-01T14:51:44.037Z,24.02
2019-05-01T14:54:10.924Z,23.98
2019-05-01T14:56:37.823Z,24.01
2019-05-01T14:59:05.092Z,24.05
2019-05-01T15:01:32.078Z,24.07
2019-05-01T15:03:59.386Z,24.08
2019-05-01T15:06:26.347Z,24.05
2019-05-01T15:08:53.476Z,24.05
2019-05-01T15:11:20.461Z,24.05
2019-05-01T15:13:47.492Z,24.06
2019-05-01T15:16:14.718Z,24.09
2019-05-01T15:18:41.629Z,24.08
2019-05-01T15:21:08.917Z,24.00
2019-05-01T15:23:36.271Z,24.01
2019-05-01T15:26:03.530Z,24.01
2019-05-01T15:28:30.702Z,24.02
2019-05-01T15:30:59.049Z,24.07
2019-05-01T15:33:26.029Z,24.10
2019-05-01T15:35:53.305Z,24.09
2019-05-01T15:38:20.380Z,24.11
2019-05-01T15:40:47.879Z,24.10
2019-05-01T15:43:15.002Z,24.04
2019-05-01T15:45:41.900Z,24.07
2019-05-01T15:48:09.140Z,24.06
2019-05-01T15:50:36.100Z,24.02
2019-05-01T15:53:03.305Z,23.99
2019-05-01T15:55:30.564Z,24.00
2019-05-01T15:57:57.821Z,23.96
2019-05-01T16:00:25.061Z,23.90
2019-05-01T16:02:52.221Z,23.93
2019-05-01T16:05:19.225Z,23.97
2019-05-01T16:07:46.158Z,23.98
2019-05-01T16:10:13.059Z,23.94
2019-05-01T16:12:40.425Z,23.92
2019-05-01T16:15:07.701Z,23.91
2019-05-01T16:17:34.638Z,23.94
2019-05-01T16:20:01.849Z,23.92
2019-05-01T16:22:28.723Z,23.92
2019-05-01T16:24:55.967Z,23.91
2019-05-01T16:27:23.221Z,23.93
2019-05-01T16:29:50.554Z,23.95
2019-05-01T16:32:17.710Z,23.91
2019-05-01T16:34:44.973Z,23.87
2019-05-01T16:37:11.895Z,23.88
2019-05-01T16:39:38.775Z,23.85
2019-05-01T16:42:05.830Z,23.86
2019-05-01T16:44:32.784Z,23.86
2019-05-01T16:46:59.721Z,23.85
2019-05-01T16:49:26.963Z,23.85
2019-05-01T16:51:53.938Z,23.80
2019-05-01T16:54:20.865Z,23.79
2019-05-01T16:56:48.093Z,23.78
2019-05-01T16:59:14.958Z,23.79
2019-05-01T17:01:41.841Z,23.78
2019-05-01T17:04:09.156Z,23.76
2019-05-01T17:06:36.516Z,23.75
2019-05-01T17:09:04.867Z,23.75
2019-05-01T17:11:32.244Z,23.72
2019-05-01T17:13:59.117Z,23.73
2019-05-01T17:16:26.349Z,23.72
2019-05-01T17:18:53.307Z,23.69
2019-05-01T17:21:20.633Z,23.70
2019-05-01T17:23:47.497Z,23.73
2019-05-01T17:26:14.361Z,23.73
2019-05-01T17:28:41.317Z,23.70
2019-05-01T17:31:08.729Z,23.70
2019-05-01T17:33:35.676Z,23.68
2019-05-01T17:36:02.804Z,23.67
2019-05-01T17:38:29.957Z,23.67
2019-05-01T17:40:57.106Z,23.62
2019-05-01T17:43:24.369Z,23.61
2019-05-01T17:45:51.308Z,23.59
2019-05-01T17:48:18.261Z,23.56
2019-05-01T17:50:45.127Z,23.55
2019-05-01T17:53:12.365Z,23.52
2019-05-01T17:55:39.244Z,23.50
2019-05-01T17:58:06.245Z,23.45
2019-05-01T18:00:34.177Z,23.46
2019-05-01T18:03:01.054Z,23.48
2019-05-01T18:05:29.323Z,23.50
2019-05-01T18:07:56.232Z,23.50
2019-05-01T18:10:23.209Z,23.49
2019-05-01T18:12:50.179Z,23.48
2019-05-01T18:15:17.422Z,23.48
2019-05-01T18:17:44.669Z,23.45
2019-05-01T18:20:11.572Z,23.42
2019-05-01T18:22:38.967Z,23.41
2019-05-01T18:25:06.112Z,23.42
2019-05-01T18:27:33.065Z,23.40
2019-05-01T18:30:00.253Z,23.39
2019-05-01T18:32:28.390Z,23.35
2019-05-01T18:34:55.681Z,23.32
2019-05-01T18:37:22.768Z,23.28
2019-05-01T18:39:52.497Z,23.26
2019-05-01T18:42:19.388Z,23.24
2019-05-01T18:44:47.574Z,23.20
2019-05-01T18:47:15.010Z,23.17
2019-05-01T18:49:42.398Z,23.15
2019-05-01T18:52:09.361Z,23.12
2019-05-01T18:54:36.498Z,23.11
2019-05-01T18:57:03.599Z,23.09
2019-05-01T18:59:31.078Z,23.07
2019-05-01T19:02:01.263Z,23.05
2019-05-01T19:04:27.641Z,23.03
2019-05-01T19:06:54.804Z,23.00
2019-05-01T19:09:29.858Z,22.97
2019-05-01T19:11:52.081Z,22.93
2019-05-01T19:14:23.681Z,22.92
2019-05-01T19:16:48.510Z,22.91
2019-05-01T19:19:15.967Z,22.89
2019-05-01T19:21:46.522Z,22.84
2019-05-01T19:24:13.843Z,22.84
2019-05-01T19:26:44.101Z,22.82
2019-05-01T19:29:10.541Z,22.82
2019-05-01T19:31:40.095Z,22.84
2019-05-01T19:34:07.276Z,22.82
2019-05-01T19:36:34.670Z,22.81
2019-05-01T19:39:06.691Z,22.81
2019-05-01T19:41:32.312Z,22.81
2019-05-01T19:43:59.333Z,22.77
2019-05-01T19:46:26.452Z,22.76
2019-05-01T19:48:53.630Z,22.74
2019-05-01T19:51:24.175Z,22.73
2019-05-01T19:53:51.742Z,22.69
2019-05-01T19:56:21.519Z,22.68
2019-05-01T19:58:48.828Z,22.65
2019-05-01T20:01:15.849Z,22.62
2019-05-01T20:03:42.800Z,22.61
2019-05-01T20:06:09.881Z,22.57
2019-05-01T20:08:37.388Z,22.57
2019-05-01T20:11:04.423Z,22.55
2019-05-01T20:13:31.693Z,22.54
2019-05-01T20:15:58.958Z,22.52
2019-05-01T20:18:25.960Z,22.47
2019-05-01T20:20:52.922Z,22.44
2019-05-01T20:23:20.211Z,22.43
2019-05-01T20:25:50.948Z,22.40
2019-05-01T20:28:16.533Z,22.40
2019-05-01T20:30:44.308Z,22.37
2019-05-01T20:33:11.312Z,22.39
2019-05-01T20:35:38.585Z,22.40
2019-05-01T20:38:05.597Z,22.40
2019-05-01T20:40:32.553Z,22.38
2019-05-01T20:43:01.128Z,22.38
2019-05-01T20:45:28.544Z,22.38
2019-05-01T20:47:55.563Z,22.36
2019-05-01T20:50:22.453Z,22.36
2019-05-01T20:52:49.528Z,22.38
2019-05-01T20:55:16.805Z,22.38
2019-05-01T20:57:43.721Z,22.40
2019-05-01T21:00:11.395Z,22.41
2019-05-01T21:02:43.154Z,22.40
2019-05-01T21:05:08.502Z,22.36
2019-05-01T21:07:35.512Z,22.35
2019-05-01T21:10:02.446Z,22.34
2019-05-01T21:12:31.277Z,22.34
2019-05-01T21:14:58.150Z,22.34
2019-05-01T21:17:25.463Z,22.34
2019-05-01T21:19:54.476Z,22.33
2019-05-01T21:22:23.310Z,22.31
2019-05-01T21:24:50.505Z,22.28
2019-05-01T21:27:17.715Z,22.23
2019-05-01T21:29:44.703Z,22.21
2019-05-01T21:32:13.660Z,22.21
2019-05-01T21:34:43.517Z,22.10
2019-05-01T21:37:10.545Z,22.17
2019-05-01T21:39:37.580Z,22.15
2019-05-01T21:42:11.485Z,22.15
2019-05-01T21:44:33.448Z,22.14
2019-05-01T21:47:00.616Z,22.13
2019-05-01T21:49:28.866Z,22.12
2019-05-01T21:51:55.884Z,22.11
2019-05-01T21:54:22.837Z,22.10
2019-05-01T21:56:49.718Z,22.05
2019-05-01T21:59:16.672Z,22.04
2019-05-01T22:01:43.923Z,22.04
2019-05-01T22:04:11.765Z,22.01
2019-05-01T22:06:39.029Z,22.02
2019-05-01T22:09:05.920Z,22.00
2019-05-01T22:11:37.722Z,21.98
2019-05-01T22:14:02.024Z,21.96
2019-05-01T22:16:29.049Z,21.96
2019-05-01T22:18:56.006Z,21.92
2019-05-01T22:21:22.944Z,21.89
2019-05-01T22:23:50.117Z,21.85
2019-05-01T22:26:17.360Z,21.81
2019-05-01T22:28:44.608Z,21.80
2019-05-01T22:31:11.878Z,21.77
2019-05-01T22:33:40.131Z,21.74
2019-05-01T22:36:07.002Z,21.72
2019-05-01T22:38:34.245Z,21.73
2019-05-01T22:41:06.445Z,21.73
2019-05-01T22:43:30.077Z,21.74
2019-05-01T22:46:01.717Z,21.74
2019-05-01T22:48:25.808Z,21.77
2019-05-01T22:50:52.764Z,21.77
2019-05-01T22:53:20.036Z,21.78
2019-05-01T22:55:47.265Z,21.76
2019-05-01T22:58:14.252Z,21.74
2019-05-01T23:00:41.465Z,21.73
2019-05-01T23:03:08.825Z,21.70
2019-05-01T23:05:36.068Z,21.67
2019-05-01T23:08:02.946Z,21.65
2019-05-01T23:10:30.777Z,21.61
2019-05-01T23:12:57.925Z,21.60
2019-05-01T23:15:25.178Z,21.58
2019-05-01T23:17:52.432Z,21.58
2019-05-01T23:20:19.318Z,21.55
2019-05-01T23:22:46.360Z,21.55
2019-05-01T23:25:13.242Z,21.54
2019-05-01T23:27:40.125Z,21.58
2019-05-01T23:30:07.089Z,21.61
2019-05-01T23:32:34.032Z,21.62
2019-05-01T23:35:01.261Z,21.61
2019-05-01T23:37:28.223Z,21.62
2019-05-01T23:39:55.417Z,21.61
2019-05-01T23:42:22.728Z,21.61
2019-05-01T23:44:49.960Z,21.61
2019-05-01T23:47:17.200Z,21.60
2019-05-01T23:49:47.788Z,21.59
2019-05-01T23:52:13.031Z,21.58
2019-05-01T23:54:39.889Z,21.55
2019-05-01T23:57:07.147Z,21.55
2019-05-01T23:59:34.297Z,21.55
